Time;durP1;ratioP1;P1;durP2;ratioP2;P2;SDS_P1;SDS_P2;PMS_P1;PMS_P2;Temp;Humidity;BMP_temperature;BMP_pressure;BME280_temperature;BME280_humidity;BME280_pressure;Samples;Min_cycle;Max_cycle;Signal;HPM_P1;HPM_P2
2022/02/22 04:32:11;;;;;;;9.10;2.77;;;;;;;9.54;52.19;99045.28;7443327;23;20246;-82
2022/02/22 04:35:33;;;;;;;5.00;2.83;;;;;;;9.48;52.30;99047.88;6847431;29;20208;-83
2022/02/22 04:38:55;;;;;;;5.37;2.33;;;;;;;9.47;51.76;99047.06;6816744;29;20210;-83
2022/02/22 04:42:17;;;;;;;6.77;2.53;;;;;;;9.09;53.03;99031.34;6816402;29;20595;-84
2022/02/22 04:45:38;;;;;;;6.50;2.80;;;;;;;9.10;53.70;99063.41;6817287;29;20213;-85
2022/02/22 04:49:01;;;;;;;5.90;2.83;;;;;;;7.97;58.82;99058.72;6818929;29;20242;-85
2022/02/22 04:52:23;;;;;;;4.40;2.70;;;;;;;8.62;59.18;99048.97;6817556;29;20234;-84
2022/02/22 04:55:44;;;;;;;7.47;3.00;;;;;;;8.35;58.89;98990.50;6816163;29;20214;-84
2022/02/22 04:59:06;;;;;;;8.07;2.87;;;;;;;8.91;58.30;99055.09;6814649;29;20234;-84
2022/02/22 05:02:27;;;;;;;6.83;3.93;;;;;;;8.85;58.92;99065.81;6814071;29;20231;-84
2022/02/22 05:05:52;;;;;;;8.47;4.30;;;;;;;9.52;57.09;99076.09;6813915;29;20618;-83
2022/02/22 05:09:14;;;;;;;6.73;3.83;;;;;;;9.42;58.20;99084.50;6813621;29;20288;-84
2022/02/22 05:12:35;;;;;;;8.27;3.27;;;;;;;9.62;57.02;99082.00;6822128;29;20781;-83
2022/02/22 05:15:57;;;;;;;7.83;3.60;;;;;;;9.44;56.89;99055.50;6839665;29;20233;-83
2022/02/22 05:19:18;;;;;;;7.73;3.97;;;;;;;9.26;57.21;99044.34;6840803;29;20871;-84
2022/02/22 05:22:44;;;;;;;7.47;3.60;;;;;;;9.39;56.87;99040.97;6840277;29;20314;-84
2022/02/22 05:26:09;;;;;;;9.53;3.77;;;;;;;9.43;56.58;99078.06;6839566;29;20202;-83
2022/02/22 05:29:30;;;;;;;6.07;3.57;;;;;;;9.53;56.43;99083.13;6839687;29;20217;-84
2022/02/22 05:32:52;;;;;;;6.40;3.40;;;;;;;9.25;56.69;99085.75;6838722;28;20261;-82
2022/02/22 05:36:14;;;;;;;5.70;3.20;;;;;;;9.37;55.80;99075.31;6838239;29;20227;-82
2022/02/22 05:39:37;;;;;;;7.83;3.90;;;;;;;9.34;55.38;99054.19;6839522;29;20356;-83
2022/02/22 05:42:58;;;;;;;9.87;3.50;;;;;;;9.18;56.15;99092.91;6840235;28;20221;-82
2022/02/22 05:46:20;;;;;;;8.27;4.50;;;;;;;9.20;55.80;99093.53;6839348;29;20580;-82
2022/02/22 05:49:42;;;;;;;6.20;3.23;;;;;;;9.04;55.96;99104.50;6839796;29;20752;-83
2022/02/22 05:53:03;;;;;;;4.90;3.30;;;;;;;9.24;56.39;99113.69;6839319;29;20260;-81
2022/02/22 05:56:26;;;;;;;8.20;3.90;;;;;;;9.49;55.44;99108.75;6838115;28;20245;-83
2022/02/22 05:59:48;;;;;;;7.23;3.20;;;;;;;9.34;55.15;99116.06;6839629;29;20212;-85
2022/02/22 06:03:09;;;;;;;7.37;3.60;;;;;;;9.46;54.91;99114.53;6838872;28;20234;-85
2022/02/22 06:06:31;;;;;;;8.30;3.40;;;;;;;9.37;54.93;99119.19;6842266;29;20214;-85
2022/02/22 06:09:53;;;;;;;5.60;3.10;;;;;;;9.47;54.52;99127.81;6839818;29;20729;-85
2022/02/22 06:13:17;;;;;;;5.37;3.30;;;;;;;9.15;54.97;99127.44;6839582;29;20232;-84
2022/02/22 06:16:39;;;;;;;7.30;3.10;;;;;;;9.18;54.71;99137.78;6837999;28;20210;-84
2022/02/22 06:20:01;;;;;;;4.23;2.87;;;;;;;8.88;55.47;99127.25;6840240;29;20213;-84
2022/02/22 06:23:23;;;;;;;6.53;3.23;;;;;;;9.45;54.60;99154.06;6838471;29;20229;-86
2022/02/22 06:26:45;;;;;;;11.47;3.77;;;;;;;9.45;53.84;99139.78;6838082;29;20217;-85
2022/02/22 06:30:10;;;;;;;7.03;3.67;;;;;;;9.35;54.08;99123.09;6839384;29;20230;-79
2022/02/22 06:33:32;;;;;;;6.47;3.63;;;;;;;9.76;52.88;99145.72;6838523;29;20228;-83
2022/02/22 06:36:54;;;;;;;11.47;4.23;;;;;;;9.48;53.23;99132.16;6838854;29;20195;-82
2022/02/22 06:40:16;;;;;;;7.33;3.83;;;;;;;9.65;52.54;99108.53;6839015;29;20220;-83
2022/02/22 06:43:38;;;;;;;9.90;3.73;;;;;;;9.64;52.42;99174.97;6836941;28;20741;-83
2022/02/22 06:47:01;;;;;;;7.50;3.50;;;;;;;9.46;52.70;99171.88;6838434;29;20213;-83
2022/02/22 06:50:24;;;;;;;10.60;4.03;;;;;;;9.50;52.87;99175.03;6838930;29;20233;-84
2022/02/22 06:53:46;;;;;;;11.67;4.47;;;;;;;9.55;52.98;99184.22;6837906;29;20210;-84
2022/02/22 06:57:08;;;;;;;7.63;3.87;;;;;;;9.01;54.26;99192.81;6839432;29;20524;-84
2022/02/22 07:00:31;;;;;;;8.60;4.27;;;;;;;8.46;54.25;99108.25;6837122;28;20230;-84
2022/02/22 07:03:53;;;;;;;10.30;3.63;;;;;;;9.33;53.71;99176.28;6838573;29;20249;-85
2022/02/22 07:07:15;;;;;;;10.93;4.30;;;;;;;9.59;52.94;99176.59;6837648;28;20206;-86
2022/02/22 07:10:37;;;;;;;12.73;3.83;;;;;;;9.64;53.42;99184.94;6840830;28;20233;-85
2022/02/22 07:13:58;;;;;;;7.83;3.70;;;;;;;9.70;53.74;99236.13;6841025;29;20213;-88
2022/02/22 07:17:21;;;;;;;6.97;3.37;;;;;;;9.63;53.07;99208.31;6827900;29;20214;-84
2022/02/22 07:20:43;;;;;;;8.43;3.17;;;;;;;10.06;53.35;99255.03;6829593;29;20230;-83
2022/02/22 07:24:05;;;;;;;7.50;3.07;;;;;;;9.71;53.38;99272.00;6839374;29;20218;-84
2022/02/22 07:27:27;;;;;;;5.53;3.43;;;;;;;9.25;53.19;99189.81;6840579;29;20209;-83
2022/02/22 07:30:48;;;;;;;9.03;3.37;;;;;;;9.83;52.62;99257.88;6840225;29;20237;-86
2022/02/22 07:34:11;;;;;;;10.87;3.20;;;;;;;9.56;52.48;99220.88;6835556;29;20210;-85
2022/02/22 07:37:33;;;;;;;5.57;3.13;;;;;;;9.77;52.37;99212.84;6841679;29;20210;-85
2022/02/22 07:41:06;;;;;;;12.57;3.50;;;;;;;9.60;52.96;99261.69;6845358;29;20314;-87
2022/02/22 07:44:28;;;;;;;8.07;3.50;;;;;;;9.59;53.04;99227.72;6843069;29;20190;-85
2022/02/22 07:47:50;;;;;;;8.00;3.63;;;;;;;9.60;55.03;99323.63;6840234;29;20208;-83
2022/02/22 07:51:16;;;;;;;8.53;3.40;;;;;;;9.43;55.02;99303.28;6841418;28;20230;-84
2022/02/22 07:54:38;;;;;;;7.53;3.40;;;;;;;9.84;54.36;99326.84;6840974;29;20252;-84
2022/02/22 07:57:59;;;;;;;8.93;3.70;;;;;;;9.99;53.59;99338.41;6842038;28;20369;-84
2022/02/22 08:01:21;;;;;;;10.63;4.20;;;;;;;9.54;54.89;99308.22;6841122;29;20614;-84
2022/02/22 08:04:43;;;;;;;13.17;4.60;;;;;;;10.17;53.47;99341.56;6840877;29;20262;-84
2022/02/22 08:08:08;;;;;;;20.20;10.63;;;;;;;9.93;53.34;99354.53;6841355;29;20257;-84
2022/02/22 08:11:31;;;;;;;13.50;8.17;;;;;;;10.20;52.84;99326.88;6841098;28;20229;-84
2022/02/22 08:14:52;;;;;;;8.60;3.67;;;;;;;9.97;52.40;99304.63;6840840;29;20321;-84
2022/02/22 08:18:14;;;;;;;14.20;3.60;;;;;;;10.21;52.82;99348.25;6839738;29;20270;-88
2022/02/22 08:21:36;;;;;;;9.87;4.10;;;;;;;10.38;52.65;99373.97;6840985;28;20309;-85
2022/02/22 08:24:59;;;;;;;15.73;4.60;;;;;;;10.91;51.03;99380.75;6840869;29;20217;-83
2022/02/22 08:28:20;;;;;;;8.60;3.83;;;;;;;10.68;50.89;99382.81;6841831;29;20236;-83
2022/02/22 08:31:42;;;;;;;9.50;3.53;;;;;;;10.49;51.27;99383.41;6842168;28;20249;-83
2022/02/22 08:35:04;;;;;;;7.10;3.40;;;;;;;10.24;50.85;99363.22;6842245;29;20225;-82
2022/02/22 08:38:26;;;;;;;10.47;3.33;;;;;;;10.31;51.37;99319.16;6843509;29;20662;-85
2022/02/22 08:41:50;;;;;;;8.73;4.13;;;;;;;11.81;48.42;99393.34;6839612;29;20222;-85
2022/02/22 08:45:11;;;;;;;12.57;4.47;;;;;;;11.75;48.04;99388.72;6841446;29;20214;-84
2022/02/22 08:48:33;;;;;;;8.97;4.30;;;;;;;11.84;47.79;99390.22;6840183;29;20339;-84
2022/02/22 08:51:55;;;;;;;7.03;3.30;;;;;;;12.12;47.00;99380.19;6841106;28;20242;-83
2022/02/22 08:55:16;;;;;;;9.70;3.07;;;;;;;11.97;46.13;99372.22;6839692;29;20297;-82
2022/02/22 08:58:40;;;;;;;8.83;3.97;;;;;;;11.64;46.79;99395.50;6841367;29;20662;-82
2022/02/22 09:02:01;;;;;;;9.47;3.20;;;;;;;11.56;47.29;99370.50;6839326;29;20230;-81
2022/02/22 09:05:23;;;;;;;10.13;3.67;;;;;;;11.83;47.34;99393.97;6839739;29;20614;-85
2022/02/22 09:08:44;;;;;;;10.00;3.33;;;;;;;11.94;47.21;99393.41;6841684;29;20229;-84
2022/02/22 09:12:07;;;;;;;8.83;2.90;;;;;;;11.76;47.13;99383.09;6834258;28;20231;-83
2022/02/22 09:15:31;;;;;;;14.00;3.80;;;;;;;12.14;47.10;99397.88;6815901;29;20209;-82
2022/02/22 09:18:54;;;;;;;8.73;3.47;;;;;;;12.40;46.01;99405.28;6812653;29;20210;-83
2022/02/22 09:22:16;;;;;;;10.47;3.20;;;;;;;12.08;46.34;99404.09;6814338;29;20231;-82
2022/02/22 09:25:38;;;;;;;9.83;3.43;;;;;;;11.96;46.33;99411.09;6838300;28;20216;-85
2022/02/22 09:29:00;;;;;;;5.23;3.27;;;;;;;11.31;48.26;99393.56;6840583;29;20229;-83
2022/02/22 09:32:24;;;;;;;7.97;3.20;;;;;;;11.39;47.95;99396.13;6838439;28;20238;-83
2022/02/22 09:35:51;;;;;;;7.03;4.17;;;;;;;11.26;47.83;99396.00;6843972;29;20251;-81
2022/02/22 09:39:13;;;;;;;12.73;5.03;;;;;;;11.32;47.43;99393.38;6844756;29;20274;-80
2022/02/22 09:42:35;;;;;;;10.83;4.00;;;;;;;11.54;47.48;99404.94;6840142;28;20226;-80
2022/02/22 09:45:57;;;;;;;8.60;3.80;;;;;;;11.32;47.83;99406.00;6842212;28;20207;-84
2022/02/22 09:49:20;;;;;;;6.73;4.17;;;;;;;11.31;48.02;99347.66;6841513;29;20281;-84
2022/02/22 09:52:42;;;;;;;7.27;3.00;;;;;;;10.84;48.54;99344.78;6837455;28;20281;-81
2022/02/22 09:56:04;;;;;;;6.27;3.30;;;;;;;11.60;47.91;99415.84;6838291;29;20237;-82
2022/02/22 09:59:25;;;;;;;5.10;2.90;;;;;;;11.05;47.87;99337.50;6841081;29;20590;-82
2022/02/22 10:02:47;;;;;;;8.03;3.33;;;;;;;11.85;47.11;99421.59;6842144;29;20236;-85
2022/02/22 10:06:11;;;;;;;9.87;3.20;;;;;;;11.65;48.03;99412.56;6839349;29;20214;-85
2022/02/22 10:09:32;;;;;;;6.17;2.90;;;;;;;11.99;47.69;99393.66;6843441;29;20229;-83
2022/02/22 10:12:55;;;;;;;10.60;3.30;;;;;;;12.36;46.76;99390.50;6842685;28;20227;-84
2022/02/22 10:16:23;;;;;;;6.37;2.90;;;;;;;12.00;47.20;99379.94;6845023;29;20217;-86
2022/02/22 10:24:09;;;;;;;11.87;3.70;;;;;;;12.27;46.88;99395.22;7012443;27;20647;-72
2022/02/22 10:27:41;;;;;;;7.27;2.77;;;;;;;12.17;46.48;99378.53;7016375;28;20268;-72
2022/02/22 10:31:09;;;;;;;13.13;3.20;;;;;;;12.45;46.46;99402.81;6990973;28;20212;-72
2022/02/22 10:34:34;;;;;;;5.53;2.77;;;;;;;12.66;44.93;99354.81;6993049;28;20686;-72
2022/02/22 10:37:55;;;;;;;7.43;2.83;;;;;;;12.27;46.29;99351.16;6992801;28;20208;-72
2022/02/22 10:41:25;;;;;;;6.80;2.90;;;;;;;13.02;44.88;99358.00;7002352;28;20230;-74
2022/02/22 10:44:47;;;;;;;6.77;3.30;;;;;;;12.96;44.82;99391.31;7020563;28;20205;-74
2022/02/22 10:48:08;;;;;;;7.53;2.93;;;;;;;12.97;43.95;99363.19;7019276;28;20224;-74
2022/02/22 10:51:36;;;;;;;7.63;3.00;;;;;;;13.41;42.82;99390.53;7020677;28;20209;-74
2022/02/22 10:54:58;;;;;;;10.43;3.00;;;;;;;13.18;43.53;99368.44;7018404;28;20353;-75
2022/02/22 10:58:21;;;;;;;7.63;2.87;;;;;;;13.35;43.50;99358.84;7020129;28;20205;-78
2022/02/22 11:01:43;;;;;;;10.27;3.10;;;;;;;12.79;43.30;99313.38;7006862;28;20697;-78
2022/02/22 11:05:06;;;;;;;6.53;2.57;;;;;;;12.24;43.92;99281.25;6993040;28;20572;-77
2022/02/22 11:08:29;;;;;;;6.53;3.20;;;;;;;13.33;43.48;99360.09;6993667;28;20685;-77
2022/02/22 11:11:52;;;;;;;10.90;3.10;;;;;;;13.45;44.02;99383.63;7020182;28;20200;-78
2022/02/22 11:15:15;;;;;;;7.73;3.20;;;;;;;12.77;43.96;99312.78;7019599;28;20794;-78
2022/02/22 11:18:44;;;;;;;10.17;3.20;;;;;;;12.13;44.28;99222.38;7019695;28;20209;-77
2022/02/22 11:22:10;;;;;;;12.23;3.50;;;;;;;12.35;44.73;99337.44;7019628;28;20229;-77
2022/02/22 11:25:34;;;;;;;10.20;3.00;;;;;;;12.80;45.06;99380.84;6997311;28;20226;-77
2022/02/22 11:28:58;;;;;;;9.03;3.40;;;;;;;12.14;45.85;99261.88;6991047;28;20684;-77
2022/02/22 11:32:23;;;;;;;7.27;3.13;;;;;;;12.23;45.51;99266.91;6990350;28;20212;-78
2022/02/22 11:35:47;;;;;;;5.87;3.07;;;;;;;12.13;45.42;99268.34;6972625;28;20652;-77
2022/02/22 11:39:22;;;;;;;8.50;3.90;;;;;;;12.48;44.72;99275.28;6973205;28;20610;-77
2022/02/22 11:42:44;;;;;;;10.10;3.47;;;;;;;12.81;45.81;99330.28;6972780;28;20583;-77
2022/02/22 11:46:09;;;;;;;6.63;2.83;;;;;;;13.20;44.44;99308.63;6972785;28;20290;-78
2022/02/22 11:49:33;;;;;;;7.97;2.90;;;;;;;13.42;44.35;99354.25;6972942;28;20221;-73
2022/02/22 11:52:54;;;;;;;7.00;3.20;;;;;;;13.33;43.74;99346.56;6972646;28;20204;-74
2022/02/22 11:56:21;;;;;;;9.20;3.07;;;;;;;13.64;43.60;99334.00;6972348;28;20214;-73
2022/02/22 11:59:47;;;;;;;9.33;3.60;;;;;;;13.70;42.84;99333.13;6972255;28;20234;-73
2022/02/22 12:03:11;;;;;;;9.33;2.97;;;;;;;13.90;42.31;99338.50;6983797;28;20232;-73
2022/02/22 12:06:45;;;;;;;11.07;2.87;;;;;;;13.73;42.88;99311.06;6982684;28;20217;-74
2022/02/22 12:10:08;;;;;;;9.57;3.30;;;;;;;13.68;43.34;99335.25;6973728;28;20207;-73
2022/02/22 12:13:41;;;;;;;7.30;3.10;;;;;;;14.09;42.66;99333.03;6972862;28;20214;-73
2022/02/22 12:17:05;;;;;;;6.93;3.20;;;;;;;13.89;43.46;99305.19;6984578;28;20220;-74
2022/02/22 12:20:27;;;;;;;11.03;3.43;;;;;;;14.13;42.80;99337.00;6994638;28;20616;-90
2022/02/22 12:23:51;;;;;;;6.20;3.10;;;;;;;14.15;42.51;99331.34;6984590;28;20220;-75
2022/02/22 12:27:13;;;;;;;8.83;3.30;;;;;;;13.41;43.96;99333.63;6976673;28;20216;-74
2022/02/22 12:30:38;;;;;;;8.63;3.47;;;;;;;13.61;43.07;99263.97;6997824;28;20205;-75
2022/02/22 12:34:00;;;;;;;9.87;3.30;;;;;;;14.30;43.08;99308.38;6985850;28;20634;-74
2022/02/22 12:37:23;;;;;;;4.80;3.00;;;;;;;13.85;42.43;99295.78;6972429;28;20213;-75
2022/02/22 12:40:48;;;;;;;8.00;3.10;;;;;;;14.04;42.59;99319.28;6974250;28;20197;-75
2022/02/22 12:44:11;;;;;;;7.77;3.30;;;;;;;14.24;42.55;99335.50;6997558;28;20224;-74
2022/02/22 12:47:33;;;;;;;8.23;3.10;;;;;;;14.40;41.77;99278.06;6971064;28;20227;-74
2022/02/22 12:50:55;;;;;;;8.93;3.33;;;;;;;13.87;42.67;99311.84;6971246;28;20577;-74
2022/02/22 12:54:18;;;;;;;10.80;3.20;;;;;;;13.79;43.02;99341.88;6969795;28;20231;-75
2022/02/22 12:57:41;;;;;;;7.90;2.60;;;;;;;13.33;43.36;99324.91;6969769;28;20235;-74
2022/02/22 13:01:13;;;;;;;8.53;3.17;;;;;;;13.67;42.14;99262.28;6971398;28;20689;-74
2022/02/22 13:04:38;;;;;;;6.30;3.07;;;;;;;13.45;42.49;99315.91;6970411;28;20271;-75
2022/02/22 13:07:59;;;;;;;7.37;2.90;;;;;;;13.40;42.61;99299.44;6970887;28;20210;-75
2022/02/22 13:11:30;;;;;;;7.83;3.03;;;;;;;13.84;42.21;99279.72;6970951;28;20681;-74
2022/02/22 13:14:54;;;;;;;11.17;4.30;;;;;;;13.83;42.69;99287.06;6969137;28;20337;-75
2022/02/22 13:18:19;;;;;;;9.80;3.60;;;;;;;13.90;41.38;99277.00;6970949;28;20222;-75
2022/02/22 13:21:41;;;;;;;14.73;5.10;;;;;;;14.19;40.81;99254.81;6970434;28;20216;-75
2022/02/22 13:25:07;;;;;;;17.77;7.97;;;;;;;14.02;40.57;99267.16;6970032;28;20207;-75
2022/02/22 13:28:35;;;;;;;9.33;3.43;;;;;;;14.32;40.19;99281.00;6973793;28;20203;-74
2022/02/22 13:32:09;;;;;;;8.97;3.40;;;;;;;13.12;41.76;99279.06;6969036;28;20655;-74
2022/02/22 13:35:31;;;;;;;10.53;3.30;;;;;;;13.18;41.48;99227.63;6967398;28;20210;-74
2022/02/22 13:38:57;;;;;;;12.80;6.20;;;;;;;13.76;41.68;99282.69;6970097;28;20606;-75
2022/02/22 13:42:24;;;;;;;10.90;4.73;;;;;;;13.32;41.33;99239.25;6970217;28;20730;-74
2022/02/22 13:45:46;;;;;;;10.93;4.30;;;;;;;14.15;40.27;99269.78;6969515;28;20220;-75
2022/02/22 13:49:11;;;;;;;10.10;3.20;;;;;;;14.18;40.42;99263.09;6970243;28;20203;-75
2022/02/22 13:52:33;;;;;;;7.80;2.93;;;;;;;13.66;40.22;99256.06;6969599;28;20213;-74
2022/02/22 13:55:58;;;;;;;8.30;2.90;;;;;;;12.99;40.16;99163.53;6969129;28;20209;-74
2022/02/22 13:59:20;;;;;;;13.20;3.47;;;;;;;12.96;39.92;99095.44;6970296;28;20593;-74
2022/02/22 14:02:42;;;;;;;7.73;3.07;;;;;;;13.81;39.59;99261.22;6969440;28;20234;-74
2022/02/22 14:06:05;;;;;;;11.63;3.97;;;;;;;13.48;39.75;99230.69;6969048;28;20262;-74
2022/02/22 14:09:27;;;;;;;6.00;3.07;;;;;;;13.98;38.59;99270.53;6969756;28;20203;-74
2022/02/22 14:12:49;;;;;;;7.10;2.80;;;;;;;14.16;38.85;99278.78;6969276;28;20206;-74
2022/02/22 14:16:13;;;;;;;8.93;2.90;;;;;;;14.39;38.84;99279.91;6969425;28;20210;-74
2022/02/22 14:19:34;;;;;;;10.27;3.67;;;;;;;14.69;37.85;99274.72;6969749;28;20220;-74
2022/02/22 14:22:58;;;;;;;10.27;3.03;;;;;;;13.96;39.18;99281.56;6969023;28;20226;-74
2022/02/22 14:26:19;;;;;;;10.43;3.03;;;;;;;13.64;38.90;99192.28;6969119;28;20245;-74
2022/02/22 14:29:45;;;;;;;8.53;3.23;;;;;;;14.57;38.34;99269.16;6968897;28;20214;-74
2022/02/22 14:33:06;;;;;;;12.57;3.43;;;;;;;14.46;38.02;99278.00;6968723;28;20205;-75
2022/02/22 14:36:29;;;;;;;7.13;3.07;;;;;;;14.15;38.34;99237.25;6968659;28;20202;-74
2022/02/22 14:39:52;;;;;;;10.13;3.23;;;;;;;14.45;38.74;99254.63;6969073;28;20564;-74
2022/02/22 14:43:13;;;;;;;9.67;3.40;;;;;;;14.26;38.27;99247.44;6968996;28;20719;-75
2022/02/22 14:46:37;;;;;;;9.90;3.07;;;;;;;13.82;39.37;99195.94;6968687;28;20593;-75
2022/02/22 14:50:01;;;;;;;10.67;3.23;;;;;;;14.23;38.19;99206.38;6968851;28;20698;-75
2022/02/22 14:53:23;;;;;;;8.83;3.03;;;;;;;13.96;38.58;99180.44;6968759;28;20212;-74
2022/02/22 14:56:46;;;;;;;8.20;3.03;;;;;;;14.00;39.37;99214.19;6968743;28;20690;-74
2022/02/22 15:00:09;;;;;;;8.83;3.23;;;;;;;13.98;39.08;99195.44;6968713;28;20216;-74
2022/02/22 15:03:31;;;;;;;7.37;2.93;;;;;;;14.29;38.82;99217.16;6968303;28;20229;-74
2022/02/22 15:06:53;;;;;;;12.37;3.20;;;;;;;13.57;39.51;99202.31;6968753;28;20202;-75
2022/02/22 15:10:14;;;;;;;10.33;3.67;;;;;;;13.13;40.36;99232.84;6972652;28;20205;-74
2022/02/22 15:13:38;;;;;;;11.17;3.50;;;;;;;13.80;39.76;99235.16;6973671;28;20578;-75
2022/02/22 15:17:00;;;;;;;8.70;3.40;;;;;;;13.09;40.41;99152.28;6973837;28;20205;-74
2022/02/22 15:20:21;;;;;;;8.27;3.10;;;;;;;13.32;40.33;99242.81;6974045;28;20568;-74
2022/02/22 15:23:43;;;;;;;6.10;3.60;;;;;;;13.38;40.51;99246.53;6973353;28;20234;-74
2022/02/22 15:27:05;;;;;;;9.43;3.23;;;;;;;13.49;40.78;99245.88;6973404;28;20224;-74
2022/02/22 15:30:28;;;;;;;7.33;3.23;;;;;;;13.40;40.93;99231.72;6972830;28;20213;-74
2022/02/22 15:33:50;;;;;;;7.73;3.07;;;;;;;13.59;41.13;99230.88;6972965;28;20209;-74
2022/02/22 15:37:12;;;;;;;9.87;4.10;;;;;;;13.49;41.12;99244.00;6973178;28;20202;-74
2022/02/22 15:40:33;;;;;;;8.40;3.00;;;;;;;13.51;41.45;99246.50;6973041;28;20208;-74
2022/02/22 15:43:55;;;;;;;7.63;3.40;;;;;;;14.16;40.13;99221.84;6972967;28;20225;-75
2022/02/22 15:47:18;;;;;;;6.57;3.00;;;;;;;13.90;40.23;99189.44;6972932;28;20213;-74
2022/02/22 15:50:40;;;;;;;13.13;3.17;;;;;;;13.81;40.41;99215.13;6972688;28;20208;-75
2022/02/22 15:54:02;;;;;;;11.57;4.40;;;;;;;13.90;40.67;99219.25;6972671;28;20221;-74
2022/02/22 15:57:23;;;;;;;11.93;3.73;;;;;;;13.54;41.20;99183.75;6972484;28;20234;-74
2022/02/22 16:00:47;;;;;;;10.67;3.30;;;;;;;13.65;41.51;99210.19;6972506;28;20216;-74
2022/02/22 16:04:11;;;;;;;9.17;3.37;;;;;;;14.12;40.64;99204.31;6972448;28;20320;-74
2022/02/22 16:07:33;;;;;;;10.97;3.60;;;;;;;13.66;41.73;99201.00;6972332;28;20545;-74
2022/02/22 16:10:55;;;;;;;7.87;3.50;;;;;;;13.50;42.36;99215.88;6972337;28;20211;-74
2022/02/22 16:14:16;;;;;;;10.93;4.20;;;;;;;13.53;42.26;99199.22;6971932;28;20569;-74
2022/02/22 16:17:38;;;;;;;8.13;3.10;;;;;;;12.77;42.43;99059.28;6972008;28;20656;-74
2022/02/22 16:21:01;;;;;;;5.73;3.30;;;;;;;14.25;41.30;99201.56;6972006;28;20235;-74
2022/02/22 16:24:23;;;;;;;7.47;3.03;;;;;;;13.53;42.21;99176.69;6970356;28;20224;-74
2022/02/22 16:27:45;;;;;;;10.50;3.70;;;;;;;14.11;41.57;99210.81;6993574;28;20208;-73
2022/02/22 16:31:07;;;;;;;14.00;3.40;;;;;;;13.22;43.63;99150.34;6997923;28;20204;-74
2022/02/22 16:34:30;;;;;;;13.93;3.60;;;;;;;12.95;44.88;99173.13;6998980;28;20291;-74
2022/02/22 16:37:53;;;;;;;8.37;3.33;;;;;;;12.43;47.25;99161.47;6999365;28;20209;-74
2022/02/22 16:41:14;;;;;;;12.87;3.63;;;;;;;12.72;46.99;99207.88;6999333;28;20202;-74
2022/02/22 16:44:36;;;;;;;11.20;3.60;;;;;;;12.43;47.51;99202.88;6998716;28;20238;-74
2022/02/22 16:47:58;;;;;;;13.80;4.20;;;;;;;12.44;47.38;99180.19;6999657;28;20210;-74
2022/02/22 16:51:20;;;;;;;11.87;3.83;;;;;;;13.02;46.83;99183.91;6998830;28;20203;-74
2022/02/22 16:54:43;;;;;;;11.27;3.87;;;;;;;13.52;45.42;99197.53;6998963;28;20199;-74
2022/02/22 16:58:05;;;;;;;13.10;4.43;;;;;;;13.18;45.34;99194.31;6998681;28;20229;-74
2022/02/22 17:01:31;;;;;;;10.90;3.60;;;;;;;12.58;47.10;99213.50;6987106;28;20211;-74
2022/02/22 17:04:53;;;;;;;10.20;3.97;;;;;;;12.61;47.69;99232.84;6990001;28;20225;-74
2022/02/22 17:08:15;;;;;;;14.23;4.20;;;;;;;12.18;48.26;99201.81;6996388;28;20218;-74
2022/02/22 17:11:38;;;;;;;12.73;4.20;;;;;;;12.48;47.62;99219.31;6998284;28;20208;-74
2022/02/22 17:15:00;;;;;;;8.77;3.77;;;;;;;12.38;47.93;99202.66;6998282;28;20565;-74
2022/02/22 17:18:22;;;;;;;12.50;4.23;;;;;;;12.87;46.87;99232.03;6998390;28;20252;-74
2022/02/22 17:21:43;;;;;;;14.00;4.33;;;;;;;12.72;47.17;99217.84;6998225;28;20708;-74
2022/02/22 17:25:06;;;;;;;18.93;5.67;;;;;;;12.95;46.45;99219.13;6997773;28;20226;-74
2022/02/22 17:28:29;;;;;;;15.17;5.80;;;;;;;12.72;46.96;99224.13;6997813;28;20214;-74
2022/02/22 17:31:53;;;;;;;15.83;7.60;;;;;;;12.17;47.99;99202.03;6997049;28;20212;-75
2022/02/22 17:35:15;;;;;;;11.37;5.10;;;;;;;12.13;49.98;99228.63;6993894;28;20217;-74
2022/02/22 17:38:39;;;;;;;10.90;4.00;;;;;;;12.65;48.28;99188.13;6969743;28;20673;-74
2022/02/22 17:42:01;;;;;;;11.57;4.37;;;;;;;12.66;49.32;99238.47;6968815;28;20557;-74
2022/02/22 17:45:24;;;;;;;12.17;3.83;;;;;;;12.25;49.77;99236.97;6968355;28;20730;-74
2022/02/22 17:48:46;;;;;;;15.37;5.07;;;;;;;12.27;50.08;99243.00;6970006;28;20214;-74
2022/02/22 17:52:08;;;;;;;10.13;3.60;;;;;;;12.29;50.03;99236.38;6969689;28;20221;-74
2022/02/22 17:55:30;;;;;;;8.90;3.63;;;;;;;12.37;49.28;99197.47;6969668;28;20213;-74
2022/02/22 17:58:51;;;;;;;13.10;3.97;;;;;;;12.70;49.62;99226.16;6969401;28;20231;-75
2022/02/22 18:02:18;;;;;;;11.17;4.83;;;;;;;12.04;51.31;99137.13;6969689;28;20695;-75
2022/02/22 18:05:41;;;;;;;11.77;3.80;;;;;;;12.17;51.80;99242.56;6969193;28;20331;-74
2022/02/22 18:09:02;;;;;;;11.07;3.93;;;;;;;12.23;51.65;99252.56;6969657;28;20690;-75
2022/02/22 18:12:27;;;;;;;9.50;4.30;;;;;;;12.32;50.97;99230.53;6969435;28;20206;-74
2022/02/22 18:15:49;;;;;;;7.20;3.70;;;;;;;12.29;50.66;99252.59;6969100;28;20210;-74
2022/02/22 18:19:11;;;;;;;8.87;3.70;;;;;;;12.23;50.46;99222.81;6969232;28;20214;-74
2022/02/22 18:22:34;;;;;;;5.87;3.00;;;;;;;11.98;49.90;99165.00;6969344;28;20210;-75
2022/02/22 18:25:56;;;;;;;6.97;2.93;;;;;;;12.27;50.25;99248.41;6968725;28;20228;-75
2022/02/22 18:29:18;;;;;;;10.07;3.70;;;;;;;12.02;50.81;99239.19;6969062;28;20213;-75
2022/02/22 18:32:39;;;;;;;7.00;3.43;;;;;;;12.26;50.04;99257.53;6968864;28;20210;-74
2022/02/22 18:36:03;;;;;;;7.30;3.27;;;;;;;12.05;50.86;99247.72;6968859;28;20216;-74
2022/02/22 18:39:24;;;;;;;5.83;3.20;;;;;;;12.07;50.67;99261.03;6968905;28;20215;-74
2022/02/22 18:42:46;;;;;;;9.80;4.00;;;;;;;11.95;51.07;99257.25;6969547;28;20207;-74
2022/02/22 18:46:08;;;;;;;7.23;3.27;;;;;;;11.86;51.64;99253.09;6974245;28;20221;-74
2022/02/22 18:49:30;;;;;;;5.87;3.23;;;;;;;11.49;53.56;99253.50;6974414;28;20207;-74
2022/02/22 18:52:53;;;;;;;5.93;3.20;;;;;;;12.18;52.83;99252.34;6974532;28;20218;-75
2022/02/22 18:56:14;;;;;;;6.00;3.10;;;;;;;11.61;53.09;99206.84;6976982;28;20213;-75
2022/02/22 18:59:36;;;;;;;11.03;3.53;;;;;;;11.36;52.71;99178.69;7000747;28;20578;-76
2022/02/22 19:02:58;;;;;;;5.80;2.80;;;;;;;11.59;51.89;99172.97;6997964;28;20649;-75
2022/02/22 19:06:19;;;;;;;12.33;5.70;;;;;;;11.79;52.08;99244.09;6975062;28;20217;-76
2022/02/22 19:09:42;;;;;;;13.30;5.10;;;;;;;11.98;51.88;99267.69;6975845;28;20661;-76
2022/02/22 19:13:04;;;;;;;10.13;3.13;;;;;;;11.65;52.79;99242.38;6987485;28;20211;-76
2022/02/22 19:16:26;;;;;;;5.27;2.90;;;;;;;11.87;52.79;99279.06;7002703;28;20667;-76
2022/02/22 19:19:48;;;;;;;8.47;2.87;;;;;;;11.64;51.58;99171.31;6996575;28;20305;-76
2022/02/22 19:23:10;;;;;;;7.10;3.00;;;;;;;10.98;52.89;99131.56;6975207;28;20230;-76
2022/02/22 19:26:33;;;;;;;5.40;2.90;;;;;;;11.11;53.08;99141.59;6974713;28;20293;-76
2022/02/22 19:29:55;;;;;;;6.53;2.80;;;;;;;11.59;51.28;99148.66;6974958;28;20218;-77
2022/02/22 19:33:16;;;;;;;4.77;2.60;;;;;;;11.49;51.68;99138.22;6974748;28;20214;-76
2022/02/22 19:36:38;;;;;;;6.73;2.90;;;;;;;11.21;52.49;99161.78;6990222;28;20637;-75
2022/02/22 19:40:00;;;;;;;6.07;2.77;;;;;;;12.16;51.61;99246.31;6977486;28;20217;-76
2022/02/22 19:43:23;;;;;;;4.67;2.90;;;;;;;11.47;53.08;99240.22;6998424;28;20543;-75
2022/02/22 19:46:45;;;;;;;7.00;3.40;;;;;;;11.63;53.02;99244.47;6974400;28;20319;-75
2022/02/22 19:50:08;;;;;;;10.43;4.17;;;;;;;11.41;53.56;99238.31;6974507;28;20231;-75
2022/02/22 19:53:30;;;;;;;8.27;3.73;;;;;;;11.93;52.41;99238.53;6973485;28;20670;-75
2022/02/22 19:56:52;;;;;;;7.53;2.73;;;;;;;11.78;52.49;99245.13;6996090;28;20653;-75
2022/02/22 20:00:15;;;;;;;8.50;3.50;;;;;;;11.39;53.49;99234.13;7001525;28;20627;-75
2022/02/22 20:03:37;;;;;;;7.10;3.23;;;;;;;11.41;53.84;99251.81;6997114;28;20227;-75
2022/02/22 20:06:59;;;;;;;7.30;3.53;;;;;;;11.61;53.13;99235.72;7000632;28;20210;-75
2022/02/22 20:10:21;;;;;;;9.33;3.73;;;;;;;11.28;54.26;99246.31;6993656;28;20268;-75
2022/02/22 20:13:43;;;;;;;8.57;3.87;;;;;;;11.79;52.64;99231.44;7000839;28;20202;-75
2022/02/22 20:17:06;;;;;;;9.20;2.80;;;;;;;11.75;52.45;99203.16;7000868;28;20214;-75
2022/02/22 20:20:28;;;;;;;7.37;3.20;;;;;;;12.15;52.16;99212.22;6995971;28;20260;-75
2022/02/22 20:23:49;;;;;;;5.97;2.93;;;;;;;12.28;51.69;99210.34;6989534;28;20688;-75
2022/02/22 20:27:11;;;;;;;6.67;3.37;;;;;;;11.86;52.97;99216.06;7001098;28;20562;-75